aviador You're here:

CYOJ Decoded Metar

HIGH LEVEL in AB, CANADA
Report Time2017-11-18 13:00:00
UTC Time2017-11-18 13:59:40
Flight Rules vfr VFR
WindCalm
Visibility9999 m
Phenomena:N/A
Clouds:Scattered 080 Hf
Scattered 091 Hf
Expected CloudBase > 800 ft AGL from Temp-Dew spread
CeilingNone
Temp-21°C (ISA -34)
Dew Point-23°C (84% RH)
AAT-24.7°C
QNH1010 hPa
Density Alt-3,094 ft
Elevation1,109 ft
Report Wrong Elevation
Raw Report
CYOJ 181300Z AUTO 00000KT 9SM SCT080 SCT091 M21/M23 A2984 RMK
SLP147=

Extra information for CYOJ:More info

Metar Taf Metar & Taf Last 4 Metars F.Rules Stats Wind Profile Meteogram Temp Stats Airport Information Weather charts Add Link Nearby VenuesMetar ALERT Operation Metar Decoded Social comments